createdAt,value
2023-05-19T01:31:35.242Z,101599.09
2023-05-19T01:34:04.284Z,101601.88
2023-05-19T01:36:32.941Z,101602.92
2023-05-19T01:39:02.201Z,101607.45
2023-05-19T01:41:32.038Z,101604.25
2023-05-19T01:43:59.436Z,101602.44
2023-05-19T01:46:26.473Z,101605.61
2023-05-19T01:48:54.639Z,101607.59
2023-05-19T01:51:21.525Z,101604.72
2023-05-19T01:53:48.516Z,101602.33
2023-05-19T01:56:25.253Z,101607.06
2023-05-19T01:59:02.566Z,101602.19
2023-05-19T02:01:50.758Z,101601.80
2023-05-19T02:04:40.395Z,101599.52
2023-05-19T02:07:22.051Z,101596.70
2023-05-19T02:10:03.479Z,101599.23
2023-05-19T02:12:40.174Z,101598.39
2023-05-19T02:15:14.008Z,101591.86
2023-05-19T02:17:47.791Z,101595.29
2023-05-19T02:20:15.739Z,101596.43
2023-05-19T02:22:42.986Z,101597.52
2023-05-19T02:25:10.963Z,101594.77
2023-05-19T02:27:39.148Z,101593.92
2023-05-19T02:30:08.372Z,101594.23
2023-05-19T02:32:35.972Z,101588.65
2023-05-19T02:35:03.612Z,101588.46
2023-05-19T02:37:31.977Z,101588.77
2023-05-19T02:39:58.897Z,101589.62
2023-05-19T02:42:25.902Z,101587.69
2023-05-19T02:44:55.119Z,101587.20
2023-05-19T02:47:22.138Z,101587.27
2023-05-19T02:49:49.120Z,101585.96
2023-05-19T02:52:16.112Z,101583.16
2023-05-19T02:54:43.027Z,101585.92
2023-05-19T02:57:10.659Z,101582.96
2023-05-19T02:59:37.671Z,101584.90
2023-05-19T03:02:04.699Z,101585.27
2023-05-19T03:04:31.720Z,101587.64
2023-05-19T03:06:58.717Z,101587.08
2023-05-19T03:09:25.822Z,101590.62
2023-05-19T03:11:52.863Z,101588.33
2023-05-19T03:14:23.278Z,101587.98
2023-05-19T03:16:50.578Z,101586.67
2023-05-19T03:19:17.910Z,101585.05
2023-05-19T03:21:45.152Z,101585.88
2023-05-19T03:24:12.252Z,101587.77
2023-05-19T03:26:39.339Z,101588.38
2023-05-19T03:29:06.340Z,101586.55
2023-05-19T03:31:33.374Z,101586.29
2023-05-19T03:34:00.509Z,101586.70
2023-05-19T03:36:31.556Z,101587.27
2023-05-19T03:38:58.827Z,101593.62
2023-05-19T03:41:26.052Z,101596.83
2023-05-19T03:43:53.037Z,101594.46
2023-05-19T03:46:20.089Z,101596.55
2023-05-19T03:48:47.207Z,101600.71
2023-05-19T03:51:14.492Z,101601.17
2023-05-19T03:53:41.580Z,101600.45
2023-05-19T03:56:13.075Z,101595.91
2023-05-19T03:58:44.021Z,101599.01
2023-05-19T04:01:11.531Z,101604.89
2023-05-19T04:03:58.545Z,101610.60
2023-05-19T04:06:45.584Z,101615.02
2023-05-19T04:09:15.294Z,101615.59
2023-05-19T04:11:43.097Z,101615.16
2023-05-19T04:14:11.914Z,101615.61
2023-05-19T04:16:39.820Z,101615.18
2023-05-19T04:19:07.047Z,101619.14
2023-05-19T04:21:33.965Z,101615.64
2023-05-19T04:24:01.319Z,101615.91
2023-05-19T04:26:30.468Z,101620.59
2023-05-19T04:28:57.425Z,101615.19
2023-05-19T04:31:24.490Z,101618.64
2023-05-19T04:33:52.991Z,101622.48
2023-05-19T04:36:21.217Z,101617.23
2023-05-19T04:38:48.372Z,101622.25
2023-05-19T04:41:16.005Z,101628.02
2023-05-19T04:43:44.215Z,101627.19
2023-05-19T04:46:14.331Z,101627.75
2023-05-19T04:48:41.440Z,101626.98
2023-05-19T04:51:08.531Z,101627.41
2023-05-19T04:53:36.065Z,101627.52
2023-05-19T04:56:03.233Z,101625.45
2023-05-19T04:58:30.147Z,101625.54
2023-05-19T05:00:59.821Z,101622.44
2023-05-19T05:03:26.951Z,101622.91
2023-05-19T05:05:53.955Z,101622.31
2023-05-19T05:08:23.910Z,101618.33
2023-05-19T05:10:52.181Z,101618.38
2023-05-19T05:13:22.404Z,101624.40
2023-05-19T05:15:51.604Z,101625.06
2023-05-19T05:18:18.823Z,101625.98
2023-05-19T05:20:46.412Z,101623.81
2023-05-19T05:23:21.961Z,101625.66
2023-05-19T05:25:53.308Z,101627.03
2023-05-19T05:28:27.638Z,101624.59
2023-05-19T05:30:56.885Z,101626.40
2023-05-19T05:33:24.459Z,101620.45
2023-05-19T05:35:52.038Z,101622.54
2023-05-19T05:38:19.338Z,101620.25
2023-05-19T05:40:46.590Z,101622.67
2023-05-19T05:43:13.937Z,101624.69
2023-05-19T05:45:41.175Z,101620.23
2023-05-19T05:48:09.026Z,101618.31
2023-05-19T05:50:36.620Z,101616.77
2023-05-19T05:53:06.839Z,101605.72
2023-05-19T05:55:34.605Z,101610.55
2023-05-19T05:58:01.945Z,101613.66
2023-05-19T06:00:29.507Z,101610.38
2023-05-19T06:03:11.798Z,101610.95
2023-05-19T06:05:42.003Z,101617.20
2023-05-19T06:08:10.456Z,101616.94
2023-05-19T06:10:41.311Z,101611.52
2023-05-19T06:13:12.275Z,101608.35
2023-05-19T06:15:42.099Z,101604.48
2023-05-19T06:18:36.301Z,101602.65
2023-05-19T06:21:03.940Z,101610.09
2023-05-19T06:23:31.311Z,101608.34
2023-05-19T06:25:58.555Z,101613.28
2023-05-19T06:28:25.766Z,101614.36
2023-05-19T06:30:53.132Z,101616.33
2023-05-19T06:33:20.554Z,101617.17
2023-05-19T06:35:48.093Z,101613.48
2023-05-19T06:38:15.543Z,101607.55
2023-05-19T06:40:43.043Z,101611.31
2023-05-19T06:43:10.497Z,101606.48
2023-05-19T06:45:38.150Z,101608.70
2023-05-19T06:48:05.862Z,101607.56
2023-05-19T06:50:33.165Z,101605.55
2023-05-19T06:53:01.288Z,101604.88
2023-05-19T06:55:28.756Z,101606.66
2023-05-19T06:57:56.410Z,101608.96
2023-05-19T07:00:35.431Z,101608.83
2023-05-19T07:03:02.952Z,101609.73
2023-05-19T07:05:30.446Z,101612.23
2023-05-19T07:07:57.499Z,101614.69
2023-05-19T07:10:24.408Z,101617.84
2023-05-19T07:12:51.415Z,101617.47
2023-05-19T07:15:18.348Z,101617.87
2023-05-19T07:17:45.510Z,101622.10
2023-05-19T07:20:12.783Z,101623.17
2023-05-19T07:22:39.958Z,101624.44
2023-05-19T07:25:07.896Z,101622.17
2023-05-19T07:27:35.429Z,101623.95
2023-05-19T07:30:03.554Z,101623.27
2023-05-19T07:32:30.726Z,101622.80
2023-05-19T07:34:57.786Z,101623.71
2023-05-19T07:37:25.835Z,101625.87
2023-05-19T07:39:53.222Z,101625.19
2023-05-19T07:42:20.246Z,101627.11
2023-05-19T07:44:47.325Z,101624.84
2023-05-19T07:47:14.338Z,101623.32
2023-05-19T07:49:45.584Z,101619.63
2023-05-19T07:52:13.310Z,101618.59
2023-05-19T07:54:40.315Z,101616.70
2023-05-19T07:57:08.860Z,101614.77
2023-05-19T07:59:35.799Z,101612.34
2023-05-19T08:02:02.954Z,101612.40
2023-05-19T08:04:30.265Z,101610.46
2023-05-19T08:06:57.346Z,101605.39
2023-05-19T08:09:24.353Z,101604.77
2023-05-19T08:11:51.370Z,101608.01
2023-05-19T08:14:19.019Z,101607.87
2023-05-19T08:16:46.109Z,101607.70
2023-05-19T08:19:13.133Z,101607.02
2023-05-19T08:21:41.754Z,101608.27
2023-05-19T08:24:08.733Z,101607.56
2023-05-19T08:26:37.587Z,101608.61
2023-05-19T08:29:05.155Z,101608.60
2023-05-19T08:31:32.214Z,101599.44
2023-05-19T08:33:59.338Z,101598.58
2023-05-19T08:36:27.196Z,101597.02
2023-05-19T08:38:54.106Z,101597.55
2023-05-19T08:41:22.699Z,101592.63
2023-05-19T08:43:49.734Z,101592.63
2023-05-19T08:46:16.934Z,101590.34
2023-05-19T08:48:48.898Z,101585.08
2023-05-19T08:51:34.692Z,101586.17
2023-05-19T08:54:14.174Z,101582.70
2023-05-19T08:56:47.406Z,101580.09
2023-05-19T08:59:15.591Z,101577.09
2023-05-19T09:01:45.536Z,101567.20
2023-05-19T09:04:16.298Z,101570.03
2023-05-19T09:06:44.608Z,101571.98
2023-05-19T09:09:11.857Z,101570.04
2023-05-19T09:12:59.950Z,101562.80
2023-05-19T09:46:28.088Z,101550.73
2023-05-19T09:49:15.120Z,101547.52
2023-05-19T09:51:42.511Z,101550.89
2023-05-19T09:54:20.590Z,101547.70
2023-05-19T09:57:27.864Z,101547.15
2023-05-19T10:00:00.170Z,101540.77
2023-05-19T10:02:28.309Z,101537.08
2023-05-19T10:04:55.959Z,101537.26
2023-05-19T10:07:26.109Z,101536.02
2023-05-19T10:09:55.424Z,101533.73
2023-05-19T10:12:26.313Z,101528.58
2023-05-19T10:14:54.589Z,101531.59
2023-05-19T10:17:22.145Z,101531.95
2023-05-19T10:19:52.290Z,101532.64
2023-05-19T10:22:19.622Z,101528.20
2023-05-19T10:24:46.783Z,101531.38
2023-05-19T10:27:15.225Z,101523.94
2023-05-19T10:29:48.090Z,101516.86
2023-05-19T10:36:07.940Z,101511.69
2023-05-19T10:38:39.737Z,101509.88
2023-05-19T10:41:32.914Z,101507.04
2023-05-19T10:44:15.872Z,101503.84
2023-05-19T10:46:43.117Z,101503.81
2023-05-19T10:49:10.232Z,101505.17
2023-05-19T10:51:58.297Z,101507.80
2023-05-19T10:58:44.811Z,101502.56
2023-05-19T11:01:14.536Z,101506.41
2023-05-19T11:03:49.615Z,101505.35
2023-05-19T11:11:21.164Z,101497.65
2023-05-19T11:13:51.146Z,101501.48
2023-05-19T11:16:31.282Z,101498.60
2023-05-19T11:22:49.998Z,101495.71
2023-05-19T11:25:41.358Z,101503.77
2023-05-19T11:28:11.900Z,101505.34
2023-05-19T11:30:41.900Z,101510.12
2023-05-19T11:33:09.792Z,101504.19
2023-05-19T11:35:38.382Z,101507.92
2023-05-19T11:38:15.926Z,101500.77
2023-05-19T11:40:55.500Z,101498.75
2023-05-19T11:43:24.248Z,101501.23
2023-05-19T11:45:53.900Z,101499.35
2023-05-19T11:48:22.108Z,101497.50
2023-05-19T11:50:50.401Z,101496.33
2023-05-19T11:53:18.993Z,101497.29
2023-05-19T11:55:47.365Z,101497.30
2023-05-19T11:58:15.316Z,101490.61
2023-05-19T12:00:46.864Z,101487.55
2023-05-19T12:06:21.015Z,101480.85
2023-05-19T12:08:50.971Z,101481.02
2023-05-19T12:11:20.075Z,101479.92
2023-05-19T12:13:47.447Z,101477.74
2023-05-19T12:16:14.457Z,101475.98
2023-05-19T12:18:41.896Z,101477.25
2023-05-19T12:21:08.948Z,101474.48
2023-05-19T12:23:36.593Z,101476.11
2023-05-19T12:26:03.938Z,101473.48
2023-05-19T12:28:31.017Z,101475.80
2023-05-19T12:30:58.284Z,101474.04
2023-05-19T12:33:25.846Z,101473.16
2023-05-19T12:35:54.002Z,101468.59
2023-05-19T12:38:22.216Z,101468.05
2023-05-19T12:40:49.662Z,101468.56
2023-05-19T12:43:21.716Z,101468.35
2023-05-19T12:45:49.618Z,101468.88
2023-05-19T12:51:53.755Z,101474.13
2023-05-19T12:54:21.699Z,101475.42
2023-05-19T12:56:52.751Z,101473.52
2023-05-19T12:59:37.341Z,101471.63
2023-05-19T13:02:06.065Z,101474.70
2023-05-19T13:04:33.159Z,101468.88
2023-05-19T13:07:00.124Z,101469.96
2023-05-19T13:09:38.373Z,101467.83
2023-05-19T13:12:06.069Z,101464.83
2023-05-19T13:14:33.026Z,101462.36
2023-05-19T13:16:59.991Z,101465.36
2023-05-19T13:19:27.277Z,101460.95
2023-05-19T13:21:54.309Z,101461.48
2023-05-19T13:24:21.282Z,101463.11
2023-05-19T13:26:48.340Z,101460.14
2023-05-19T13:29:15.359Z,101464.23
2023-05-19T13:31:42.289Z,101461.96
2023-05-19T13:34:09.228Z,101463.75
2023-05-19T13:36:36.270Z,101458.80
2023-05-19T13:39:03.526Z,101461.47
2023-05-19T13:41:30.435Z,101465.55
2023-05-19T13:43:59.051Z,101467.13
2023-05-19T13:46:36.667Z,101463.77
2023-05-19T13:49:11.538Z,101461.30
2023-05-19T13:51:41.706Z,101469.43
2023-05-19T13:54:08.590Z,101468.20
2023-05-19T13:56:36.059Z,101459.91
2023-05-19T13:59:03.512Z,101457.09
2023-05-19T14:01:30.798Z,101457.11
2023-05-19T14:03:58.046Z,101454.47
2023-05-19T14:06:25.104Z,101456.23
2023-05-19T14:08:52.059Z,101456.95
2023-05-19T14:11:24.105Z,101464.92
2023-05-19T14:21:15.146Z,101451.18
2023-05-19T14:23:51.356Z,101450.84
2023-05-19T14:26:45.743Z,101451.55
2023-05-19T14:29:13.623Z,101456.30
2023-05-19T14:31:40.965Z,101458.77
2023-05-19T14:34:17.586Z,101464.95
2023-05-19T14:37:31.353Z,101471.86
2023-05-19T14:39:58.547Z,101471.16
2023-05-19T14:42:26.451Z,101470.27
2023-05-19T14:44:56.285Z,101470.28
2023-05-19T14:47:26.250Z,101470.28
2023-05-19T14:49:54.471Z,101473.64
2023-05-19T15:28:08.478Z,101491.61
2023-05-19T15:30:37.409Z,101490.73
2023-05-19T15:33:16.800Z,101487.90
2023-05-19T15:35:44.140Z,101482.25
2023-05-19T15:41:21.384Z,101467.59
2023-05-19T15:43:48.579Z,101467.05
2023-05-19T15:46:15.682Z,101465.12
2023-05-19T15:48:42.711Z,101463.02
2023-05-19T15:51:12.261Z,101463.89
2023-05-19T15:54:10.277Z,101463.89
2023-05-19T15:56:55.844Z,101463.71
2023-05-19T15:59:24.065Z,101460.71
2023-05-19T16:01:52.994Z,101459.31
2023-05-19T16:04:20.491Z,101461.77
2023-05-19T16:06:56.342Z,101454.75
2023-05-19T16:09:23.319Z,101455.64
2023-05-19T16:11:50.786Z,101450.88
2023-05-19T16:14:17.754Z,101455.45
2023-05-19T16:16:44.930Z,101457.41
2023-05-19T16:19:12.002Z,101458.10
2023-05-19T16:21:38.970Z,101456.70
2023-05-19T16:24:06.085Z,101455.47
2023-05-19T16:26:42.682Z,101455.80
2023-05-19T16:29:24.742Z,101459.49
2023-05-19T16:31:51.856Z,101457.71
2023-05-19T16:34:18.816Z,101458.59
2023-05-19T16:36:45.799Z,101456.84
2023-05-19T16:39:12.843Z,101452.94
2023-05-19T16:41:39.740Z,101446.77
2023-05-19T16:44:06.725Z,101442.71
2023-05-19T16:46:33.820Z,101444.83
2023-05-19T16:49:00.926Z,101436.70
2023-05-19T16:51:27.937Z,101436.17
2023-05-19T16:53:54.954Z,101437.41
2023-05-19T16:56:21.890Z,101439.16
2023-05-19T16:58:48.885Z,101445.33
2023-05-19T17:01:16.870Z,101443.39
2023-05-19T17:03:43.934Z,101443.73
2023-05-19T17:06:10.853Z,101443.38
2023-05-19T17:08:37.737Z,101441.78
2023-05-19T17:11:06.031Z,101446.36
2023-05-19T17:13:36.150Z,101444.25
2023-05-19T17:16:03.204Z,101447.24
2023-05-19T17:18:32.992Z,101446.71
2023-05-19T17:21:03.030Z,101449.16
2023-05-19T17:23:30.463Z,101454.98
2023-05-19T17:25:57.935Z,101454.10
2023-05-19T17:28:24.884Z,101457.27
2023-05-19T17:30:51.917Z,101459.71
2023-05-19T17:33:19.010Z,101458.83
2023-05-19T17:35:46.163Z,101457.41
2023-05-19T17:38:13.168Z,101452.65
2023-05-19T17:40:41.983Z,101458.81
2023-05-19T17:43:09.117Z,101464.44
2023-05-19T17:45:36.086Z,101465.45
2023-05-19T17:48:04.192Z,101466.49
2023-05-19T17:50:34.473Z,101468.77
2023-05-19T17:53:01.839Z,101476.48
2023-05-19T17:55:30.472Z,101480.14
2023-05-19T17:57:58.205Z,101482.73
2023-05-19T18:00:25.716Z,101486.88
2023-05-19T18:02:53.010Z,101483.30
2023-05-19T18:05:20.477Z,101485.52
2023-05-19T18:07:47.942Z,101480.38
2023-05-19T18:10:16.315Z,101480.73
2023-05-19T18:12:43.290Z,101483.84
2023-05-19T18:15:11.055Z,101487.69
2023-05-19T18:17:38.017Z,101481.11
2023-05-19T18:20:06.187Z,101484.76
2023-05-19T18:22:33.229Z,101483.29
2023-05-19T18:25:00.483Z,101480.73
2023-05-19T18:27:27.463Z,101479.42
2023-05-19T18:29:54.435Z,101477.25
2023-05-19T18:32:21.331Z,101477.52
2023-05-19T18:34:48.198Z,101480.43
2023-05-19T18:37:15.225Z,101482.79
2023-05-19T18:39:42.167Z,101481.45
2023-05-19T18:42:09.145Z,101482.25
2023-05-19T18:44:36.121Z,101484.65
2023-05-19T18:47:03.301Z,101492.70
2023-05-19T18:49:30.359Z,101498.48
2023-05-19T18:51:57.254Z,101499.85
2023-05-19T18:54:24.332Z,101504.20
2023-05-19T18:56:51.355Z,101509.26
2023-05-19T18:59:18.456Z,101514.85
2023-05-19T19:01:45.533Z,101515.52
2023-05-19T19:04:14.260Z,101519.46
2023-05-19T19:06:41.943Z,101521.81
2023-05-19T19:09:08.995Z,101527.33
2023-05-19T19:11:36.021Z,101529.86
2023-05-19T19:14:02.968Z,101534.28
2023-05-19T19:16:30.093Z,101533.29
2023-05-19T19:18:57.200Z,101538.60
2023-05-19T19:21:24.232Z,101540.21
2023-05-19T19:23:54.340Z,101540.25
2023-05-19T19:26:26.555Z,101539.59
2023-05-19T19:28:53.956Z,101545.80
2023-05-19T19:31:21.406Z,101547.28
2023-05-19T19:33:48.713Z,101548.75
2023-05-19T19:36:15.586Z,101546.70
2023-05-19T19:38:42.536Z,101550.23
2023-05-19T19:41:10.549Z,101548.19
2023-05-19T19:43:37.522Z,101549.78
2023-05-19T19:46:06.525Z,101557.86
2023-05-19T19:48:33.521Z,101555.29
2023-05-19T19:51:16.889Z,101551.33
2023-05-19T19:53:44.154Z,101552.61
2023-05-19T19:56:11.816Z,101555.27
2023-05-19T19:58:38.797Z,101555.01
2023-05-19T20:01:07.387Z,101553.39
2023-05-19T20:03:35.063Z,101553.90
2023-05-19T20:06:02.555Z,101555.12
2023-05-19T20:08:29.794Z,101548.60
2023-05-19T20:10:56.879Z,101548.03
2023-05-19T20:13:24.146Z,101548.52
2023-05-19T20:15:51.205Z,101549.05
2023-05-19T20:18:18.252Z,101546.08
2023-05-19T20:20:45.350Z,101547.69
2023-05-19T20:23:12.851Z,101550.70
2023-05-19T20:26:11.915Z,101551.08
2023-05-19T20:28:43.164Z,101542.77
2023-05-19T20:31:22.148Z,101551.07
2023-05-19T20:36:36.729Z,101555.91
2023-05-19T20:39:09.274Z,101562.52
2023-05-19T20:41:36.608Z,101567.20
2023-05-19T20:44:04.254Z,101565.04
2023-05-19T20:46:38.126Z,101569.92
2023-05-19T20:52:27.911Z,101571.25
2023-05-19T20:54:59.730Z,101578.57
2023-05-19T21:05:34.412Z,101577.30
2023-05-19T21:08:15.223Z,101574.27
2023-05-19T21:11:15.750Z,101570.11
2023-05-19T21:13:43.614Z,101564.05
2023-05-19T21:16:10.697Z,101567.11
2023-05-19T21:18:51.982Z,101568.41
2023-05-19T21:21:19.434Z,101570.23
2023-05-19T21:23:46.577Z,101569.21
2023-05-19T21:26:15.192Z,101570.29
2023-05-19T21:29:00.016Z,101567.63
2023-05-19T21:31:45.651Z,101575.41
2023-05-19T21:34:50.719Z,101570.33
2023-05-19T21:37:21.246Z,101579.60
2023-05-19T21:39:51.346Z,101585.92
2023-05-19T21:42:20.475Z,101587.34
2023-05-19T21:44:47.752Z,101582.66
2023-05-19T21:47:29.262Z,101583.64
2023-05-19T21:49:58.489Z,101577.25
2023-05-19T21:52:25.761Z,101573.80
2023-05-19T21:54:54.339Z,101573.58
2023-05-19T21:57:21.573Z,101578.40
2023-05-19T21:59:48.895Z,101576.40
2023-05-19T22:09:51.118Z,101585.55
2023-05-19T22:12:26.565Z,101584.64
2023-05-19T22:14:53.583Z,101577.12
2023-05-19T22:17:20.790Z,101576.44
2023-05-19T22:19:47.808Z,101575.58
2023-05-19T22:22:14.938Z,101572.45
2023-05-19T22:24:42.175Z,101572.27
2023-05-19T22:27:09.592Z,101569.20
2023-05-19T22:29:38.160Z,101567.46
2023-05-19T22:32:07.176Z,101570.09
2023-05-19T22:34:34.299Z,101566.23
2023-05-19T22:37:01.472Z,101572.88
2023-05-19T22:39:28.727Z,101573.77
2023-05-19T22:41:56.254Z,101572.39
2023-05-19T22:44:26.812Z,101572.44
2023-05-19T22:46:58.968Z,101577.77
2023-05-19T22:49:56.929Z,101585.86
2023-05-19T22:56:18.043Z,101568.59
2023-05-19T22:58:50.265Z,101562.98
2023-05-19T23:01:28.727Z,101568.27
2023-05-19T23:03:57.966Z,101570.98
2023-05-19T23:06:25.249Z,101573.39
2023-05-19T23:09:01.087Z,101569.11
2023-05-19T23:11:28.990Z,101570.42
2023-05-19T23:14:04.276Z,101567.39
2023-05-19T23:16:32.657Z,101567.27
2023-05-19T23:18:59.617Z,101559.96
2023-05-19T23:40:16.884Z,101558.64
2023-05-19T23:43:15.920Z,101558.21
2023-05-19T23:45:56.837Z,101558.83
2023-05-19T23:48:28.116Z,101559.23
2023-05-19T23:51:15.315Z,101550.70
2023-05-19T23:53:47.451Z,101551.15
2023-05-19T23:59:36.531Z,101553.83
